Aviation Digital Data Service (ADDS)

Output produced by METARs form (1644 UTC 20 January 2019)
found at http://www.aviationweather.gov/metar/data/
 
UTAA 201600Z 28006KT 9999 FEW041CB OVC041 05/M01 Q1027 R88/CLRD70 NOSIG
TAF AMD UTAA 201400Z 2014/2112 30014KT 6000 BKN010 SCT020CB 530009 
     TEMPO 2016/2022 01012KT 3000 BR OVC006 
     BECMG 2022/2024 1500 BR OVC004 
     TEMPO 2100/2106 VRB04KT 0300 -DZ FG VV001 
     BECMG 2106/2108 08016KT 6000 BKN008
       
UTAT 201600Z 24008KT 8000 OVC010 M01/M02 Q1024 R26/19//60 NOSIG
TAF UTAT 201033Z 2012/2112 26012G22KT 5000 BR SCT020CB OVC010 650100 530002 
     TEMPO 2012/2018 2000 SHSN OVC005 
     TEMPO 2018/2024 1000 SN BR OVC001
       
UTAM 201600Z 23004KT 6000 BKN050 05/M02 Q1028 NOSIG
TAF UTAM 201035Z 2012/2112 32012KT 5000 BKN010 530005 
     TEMPO 2012/2016 31010G20KT SCT020CB 
     BECMG 2021/2024 3000 BR BKN005 
     TEMPO 2100/2105 VRB04KT 0600 FZFG VV003 
     BECMG 2106/2107 07010KT 5000 BKN007
       
UTAV 201600Z 23008KT 9999 FEW033CB BKN033 04/M02 Q1025 NOSIG
TAF UTAV 201030Z 2012/2112 32014KT 6000 BKN020 530002 2012/2018 26016G26KT 3000
-RASN OVC005 
     TEMPO 2023/2104 VRB04KT 2000 BR BKN007
       
UTAK 201600Z 15004KT 9999 FEW050 BKN100 03/M00 Q1026 R16R/CLRD70 NOSIG
TAF UTAK 201030Z 2012/2112 07010KT 9999 SCT026 BKN100 530009 
     TEMPO 2012/2018 14010KT